createdAt,value
2017-12-10T00:02:13.663Z,3.50
2017-12-10T00:04:41.283Z,3.13
2017-12-10T00:07:08.900Z,2.97
2017-12-10T00:09:37.274Z,2.93
2017-12-10T00:12:05.741Z,2.60
2017-12-10T00:14:33.324Z,2.70
2017-12-10T00:17:01.703Z,3.27
2017-12-10T00:19:30.074Z,2.50
2017-12-10T00:21:58.438Z,3.50
2017-12-10T00:24:26.050Z,3.20
2017-12-10T00:26:53.660Z,3.43
2017-12-10T00:29:21.233Z,3.57
2017-12-10T00:31:49.590Z,3.13
2017-12-10T00:34:17.192Z,4.03
2017-12-10T00:36:44.765Z,3.53
2017-12-10T00:39:12.479Z,3.50
2017-12-10T00:41:40.064Z,3.60
2017-12-10T00:44:08.426Z,3.40
2017-12-10T00:46:36.027Z,4.20
2017-12-10T00:49:03.626Z,4.17
2017-12-10T00:54:05.160Z,4.67
2017-12-10T00:56:32.745Z,4.23
2017-12-10T00:59:00.374Z,4.50
2017-12-10T01:01:27.978Z,3.93
2017-12-10T01:03:55.551Z,4.10
2017-12-10T01:06:23.874Z,4.03
2017-12-10T01:08:51.466Z,4.30
2017-12-10T01:11:19.108Z,4.70
2017-12-10T01:13:46.703Z,4.27
2017-12-10T01:16:14.317Z,4.40
2017-12-10T01:18:41.887Z,4.03
2017-12-10T01:21:09.487Z,4.37
2017-12-10T01:23:37.074Z,4.67
2017-12-10T01:26:05.455Z,4.90
2017-12-10T01:28:33.030Z,4.47
2017-12-10T01:31:00.668Z,4.83
2017-12-10T01:33:29.060Z,4.13
2017-12-10T01:35:56.654Z,4.23
2017-12-10T01:38:24.255Z,4.30
2017-12-10T01:40:51.833Z,4.23
2017-12-10T01:43:20.195Z,4.43
2017-12-10T01:45:48.550Z,4.30
2017-12-10T01:48:16.910Z,5.00
2017-12-10T01:50:44.518Z,4.73
2017-12-10T01:53:13.017Z,4.57
2017-12-10T01:55:40.618Z,4.97
2017-12-10T01:58:08.218Z,5.17
2017-12-10T02:00:36.601Z,5.10
2017-12-10T02:03:04.201Z,5.27
2017-12-10T02:05:31.794Z,5.30
2017-12-10T02:07:59.399Z,4.87
2017-12-10T02:10:26.978Z,5.67
2017-12-10T02:12:54.590Z,4.97
2017-12-10T02:15:22.188Z,5.27
2017-12-10T02:17:49.782Z,6.10
2017-12-10T02:20:17.357Z,5.70
2017-12-10T02:22:44.977Z,5.30
2017-12-10T02:25:12.580Z,6.13
2017-12-10T02:27:40.172Z,6.67
2017-12-10T02:30:08.570Z,6.63
2017-12-10T02:32:36.204Z,6.67
2017-12-10T02:35:04.572Z,7.20
2017-12-10T02:37:32.950Z,7.30
2017-12-10T02:40:01.323Z,6.93
2017-12-10T02:42:28.933Z,8.07
2017-12-10T02:44:56.528Z,7.63
2017-12-10T02:47:24.150Z,6.93
2017-12-10T02:49:51.730Z,7.07
2017-12-10T02:52:19.331Z,7.33
2017-12-10T02:54:47.674Z,6.60
2017-12-10T02:57:15.308Z,7.00
2017-12-10T02:59:42.942Z,6.37
2017-12-10T03:02:11.295Z,7.63
2017-12-10T03:04:38.891Z,7.83
2017-12-10T03:07:06.480Z,7.37
2017-12-10T03:09:34.089Z,7.37
2017-12-10T03:12:02.483Z,7.37
2017-12-10T03:14:30.845Z,7.17
2017-12-10T03:16:59.186Z,7.50
2017-12-10T03:19:27.556Z,6.23
2017-12-10T03:21:55.198Z,7.20
2017-12-10T03:24:22.818Z,6.53
2017-12-10T03:26:50.402Z,6.67
2017-12-10T03:29:18.765Z,6.77
2017-12-10T03:31:47.149Z,6.83
2017-12-10T03:34:15.518Z,6.60
2017-12-10T03:36:43.890Z,7.00
2017-12-10T03:39:11.474Z,6.43
2017-12-10T03:41:39.852Z,7.10
2017-12-10T03:44:08.229Z,6.77
2017-12-10T03:46:36.601Z,7.20
2017-12-10T03:49:04.942Z,7.10
2017-12-10T03:51:32.537Z,6.90
2017-12-10T03:54:00.909Z,7.00
2017-12-10T03:56:29.244Z,6.37
2017-12-10T03:58:57.599Z,6.77
2017-12-10T04:01:25.250Z,7.27
2017-12-10T04:03:52.834Z,7.00
2017-12-10T04:06:20.484Z,6.87
2017-12-10T04:08:48.083Z,6.23
2017-12-10T04:11:15.687Z,7.23
2017-12-10T04:13:43.268Z,6.80
2017-12-10T04:16:10.885Z,6.73
2017-12-10T04:18:38.446Z,6.63
2017-12-10T04:21:06.813Z,6.70
2017-12-10T04:23:34.395Z,7.27
2017-12-10T04:26:02.787Z,7.27
2017-12-10T04:28:30.381Z,7.60
2017-12-10T04:30:57.961Z,6.73
2017-12-10T04:33:25.573Z,7.07
2017-12-10T04:35:53.165Z,6.30
2017-12-10T04:38:20.761Z,6.60
2017-12-10T04:40:48.396Z,6.93
2017-12-10T04:43:15.978Z,7.20
2017-12-10T04:45:43.550Z,7.10
2017-12-10T04:48:11.933Z,6.70
2017-12-10T04:50:40.281Z,7.40
2017-12-10T04:53:07.895Z,6.13
2017-12-10T04:55:35.502Z,7.07
2017-12-10T04:58:03.100Z,6.30
2017-12-10T05:00:30.699Z,6.43
2017-12-10T05:02:58.282Z,6.73
2017-12-10T05:05:25.866Z,6.63
2017-12-10T05:07:54.209Z,6.47
2017-12-10T05:10:21.803Z,6.80
2017-12-10T05:12:50.162Z,6.77
2017-12-10T05:15:17.799Z,7.03
2017-12-10T05:17:45.383Z,7.43
2017-12-10T05:20:12.974Z,7.00
2017-12-10T05:22:40.569Z,6.70
2017-12-10T05:25:08.153Z,6.70
2017-12-10T05:27:35.745Z,6.33
2017-12-10T05:30:04.139Z,6.33
2017-12-10T05:32:31.879Z,6.60
2017-12-10T05:34:59.452Z,6.63
2017-12-10T05:37:27.828Z,6.57
2017-12-10T05:39:56.167Z,6.17
2017-12-10T05:42:23.867Z,6.70
2017-12-10T05:44:52.226Z,6.60
2017-12-10T05:47:19.842Z,6.40
2017-12-10T05:49:47.469Z,7.90
2017-12-10T05:52:15.070Z,7.47
2017-12-10T05:54:42.649Z,19.83
2017-12-10T05:57:10.239Z,13.20
2017-12-10T05:59:38.605Z,7.47
2017-12-10T06:02:06.177Z,8.50
2017-12-10T06:04:34.538Z,9.17
2017-12-10T06:07:02.133Z,10.00
2017-12-10T06:09:30.562Z,8.50
2017-12-10T06:11:58.968Z,8.50
2017-12-10T06:14:26.609Z,6.73
2017-12-10T06:16:54.201Z,6.77
2017-12-10T06:19:22.601Z,6.53
2017-12-10T06:21:50.201Z,6.93
2017-12-10T06:26:51.628Z,6.47
2017-12-10T06:29:19.240Z,8.43
2017-12-10T06:31:46.801Z,6.67
2017-12-10T06:34:14.521Z,7.07
2017-12-10T06:36:42.142Z,6.43
2017-12-10T06:39:10.618Z,6.83
2017-12-10T06:41:38.220Z,6.83
2017-12-10T06:44:05.830Z,7.07
2017-12-10T06:46:33.409Z,7.67
2017-12-10T06:49:01.764Z,9.10
2017-12-10T06:51:29.381Z,9.13
2017-12-10T06:53:57.043Z,7.50
2017-12-10T06:56:24.653Z,6.73
2017-12-10T06:58:52.267Z,6.73
2017-12-10T07:01:19.926Z,7.50
2017-12-10T07:03:47.513Z,8.30
2017-12-10T07:06:15.090Z,7.67
2017-12-10T07:08:42.715Z,6.60
2017-12-10T07:11:10.368Z,6.87
2017-12-10T07:13:37.965Z,7.83
2017-12-10T07:16:05.551Z,7.87
2017-12-10T07:18:33.177Z,8.07
2017-12-10T07:21:00.797Z,6.80
2017-12-10T07:23:28.421Z,8.53
2017-12-10T07:25:56.005Z,7.97
2017-12-10T07:28:24.391Z,7.97
2017-12-10T07:30:52.009Z,7.50
2017-12-10T07:33:19.607Z,7.40
2017-12-10T07:35:47.965Z,7.03
2017-12-10T07:38:15.661Z,7.00
2017-12-10T07:40:43.260Z,7.17
2017-12-10T07:43:10.854Z,7.40
2017-12-10T07:45:39.224Z,7.50
2017-12-10T07:48:06.807Z,15.77
2017-12-10T07:50:35.181Z,8.10
2017-12-10T07:53:03.525Z,8.40
2017-12-10T07:55:31.852Z,6.83
2017-12-10T07:57:59.437Z,7.57
2017-12-10T08:00:27.053Z,8.30
2017-12-10T08:02:55.412Z,7.97
2017-12-10T08:05:23.043Z,7.43
2017-12-10T08:07:50.717Z,6.37
2017-12-10T08:10:18.293Z,5.50
2017-12-10T08:12:45.906Z,5.97
2017-12-10T08:15:13.541Z,5.40
2017-12-10T08:17:41.138Z,5.27
2017-12-10T08:20:08.704Z,6.60
2017-12-10T08:22:36.351Z,6.93
2017-12-10T08:25:03.943Z,6.17
2017-12-10T08:27:31.563Z,6.13
2017-12-10T08:29:59.195Z,6.73
2017-12-10T08:32:27.565Z,6.03
2017-12-10T08:34:55.918Z,5.70
2017-12-10T08:37:23.549Z,5.23
2017-12-10T08:39:51.154Z,4.20
2017-12-10T08:42:18.726Z,4.87
2017-12-10T08:44:47.077Z,5.80
2017-12-10T08:47:14.978Z,5.47
2017-12-10T08:49:43.399Z,5.73
2017-12-10T08:52:10.986Z,6.33
2017-12-10T08:54:38.609Z,5.10
2017-12-10T08:57:06.465Z,5.90
2017-12-10T08:59:34.099Z,6.80
2017-12-10T09:02:02.503Z,9.27
2017-12-10T09:04:30.101Z,6.93
2017-12-10T09:06:57.703Z,5.30
2017-12-10T09:09:26.097Z,5.10
2017-12-10T09:11:53.716Z,5.27
2017-12-10T09:14:21.345Z,14.10
2017-12-10T09:16:48.968Z,8.47
2017-12-10T09:19:17.369Z,12.23
2017-12-10T09:21:45.042Z,11.10
2017-12-10T09:24:12.682Z,7.03
2017-12-10T09:26:40.292Z,6.07
2017-12-10T09:29:07.913Z,10.67
2017-12-10T09:31:35.522Z,4.13
2017-12-10T09:34:03.111Z,5.17
2017-12-10T09:36:31.467Z,9.43
2017-12-10T09:38:59.203Z,10.97
2017-12-10T09:41:26.811Z,12.00
2017-12-10T09:43:55.202Z,10.20
2017-12-10T09:46:23.542Z,10.07
2017-12-10T09:48:51.155Z,10.13
2017-12-10T09:51:18.730Z,7.27
2017-12-10T09:53:46.340Z,3.40
2017-12-10T09:56:14.752Z,6.57
2017-12-10T09:58:42.355Z,6.60
2017-12-10T10:01:09.960Z,3.73
2017-12-10T10:03:38.451Z,15.03
2017-12-10T10:06:06.053Z,6.47
2017-12-10T10:08:33.662Z,8.67
2017-12-10T10:11:01.259Z,9.33
2017-12-10T10:13:28.859Z,4.20
2017-12-10T10:15:56.518Z,6.13
2017-12-10T10:18:24.114Z,5.00
2017-12-10T10:20:51.718Z,4.23
2017-12-10T10:23:19.295Z,3.30
2017-12-10T10:25:46.879Z,3.10
2017-12-10T10:28:15.269Z,3.87
2017-12-10T10:30:42.854Z,5.47
2017-12-10T10:33:10.452Z,6.40
2017-12-10T10:35:38.058Z,5.60
2017-12-10T10:38:05.643Z,4.10
2017-12-10T10:40:33.299Z,4.10
2017-12-10T10:43:00.899Z,3.53
2017-12-10T10:45:28.510Z,4.53
2017-12-10T10:47:56.108Z,4.57
2017-12-10T10:50:23.738Z,3.63
2017-12-10T10:52:51.306Z,3.20
2017-12-10T10:55:18.901Z,4.30
2017-12-10T10:57:46.556Z,3.63
2017-12-10T11:00:14.169Z,4.03
2017-12-10T11:02:41.737Z,4.10
2017-12-10T11:05:09.327Z,4.80
2017-12-10T11:07:36.938Z,5.60
2017-12-10T11:10:04.529Z,4.30
2017-12-10T11:12:32.127Z,6.20
2017-12-10T11:14:59.782Z,8.60
2017-12-10T11:17:27.389Z,4.87
2017-12-10T11:19:54.980Z,4.43
2017-12-10T11:22:23.367Z,6.30
2017-12-10T11:24:50.998Z,5.70
2017-12-10T11:27:18.620Z,5.37
2017-12-10T11:29:47.031Z,4.50
2017-12-10T11:32:14.651Z,5.97
2017-12-10T11:34:43.115Z,4.10
2017-12-10T11:37:10.692Z,4.30
2017-12-10T11:39:39.061Z,3.27
2017-12-10T11:42:06.662Z,3.93
2017-12-10T11:44:34.345Z,3.60
2017-12-10T11:47:01.930Z,3.73
2017-12-10T11:49:29.532Z,3.40
2017-12-10T11:51:57.126Z,2.77
2017-12-10T11:54:24.713Z,2.87
2017-12-10T11:56:52.310Z,3.17
2017-12-10T11:59:20.674Z,3.70
2017-12-10T12:01:49.033Z,3.40
2017-12-10T12:04:16.773Z,3.27
2017-12-10T12:06:44.370Z,3.10
2017-12-10T12:09:11.965Z,3.07
2017-12-10T12:11:39.541Z,3.67
2017-12-10T12:14:07.146Z,4.30
2017-12-10T12:16:34.730Z,3.70
2017-12-10T12:19:03.104Z,4.40
2017-12-10T12:21:31.442Z,3.40
2017-12-10T12:23:59.045Z,4.47
2017-12-10T12:26:27.474Z,5.17
2017-12-10T12:28:55.065Z,9.43
2017-12-10T12:31:23.433Z,4.80
2017-12-10T12:33:51.009Z,6.27
2017-12-10T12:36:18.632Z,5.77
2017-12-10T12:38:46.258Z,6.03
2017-12-10T12:41:13.878Z,6.57
2017-12-10T12:43:41.468Z,6.33
2017-12-10T12:46:09.852Z,4.83
2017-12-10T12:48:37.533Z,5.33
2017-12-10T12:51:05.240Z,6.00
2017-12-10T12:53:32.885Z,4.87
2017-12-10T12:56:00.470Z,3.97
2017-12-10T12:58:28.830Z,9.90
2017-12-10T13:00:56.473Z,7.90
2017-12-10T13:03:24.059Z,4.73
2017-12-10T13:05:51.760Z,5.97
2017-12-10T13:08:19.353Z,7.33
2017-12-10T13:10:46.958Z,5.40
2017-12-10T13:13:15.325Z,4.20
2017-12-10T13:15:42.921Z,3.80
2017-12-10T13:18:10.590Z,4.03
2017-12-10T13:20:38.180Z,4.37
2017-12-10T13:23:05.795Z,4.57
2017-12-10T13:25:34.150Z,4.40
2017-12-10T13:28:01.747Z,4.17
2017-12-10T13:30:29.334Z,3.87
2017-12-10T13:32:56.943Z,4.50
2017-12-10T13:35:25.301Z,3.93
2017-12-10T13:37:52.984Z,3.90
2017-12-10T13:40:20.546Z,13.93
2017-12-10T13:42:48.915Z,6.40
2017-12-10T13:45:17.317Z,7.17
2017-12-10T13:47:44.935Z,6.67
2017-12-10T13:50:12.530Z,4.40
2017-12-10T13:52:40.881Z,5.30
2017-12-10T13:55:09.251Z,4.03
2017-12-10T13:57:36.844Z,10.47
2017-12-10T14:00:05.201Z,4.23
2017-12-10T14:02:32.804Z,5.97
2017-12-10T14:05:00.416Z,5.93
2017-12-10T14:07:28.011Z,5.03
2017-12-10T14:09:55.592Z,5.33
2017-12-10T14:12:23.209Z,5.37
2017-12-10T14:14:50.839Z,5.30
2017-12-10T14:17:18.453Z,5.77
2017-12-10T14:19:46.067Z,5.13
2017-12-10T14:22:13.830Z,3.57
2017-12-10T14:24:41.431Z,3.30
2017-12-10T14:27:09.806Z,5.77
2017-12-10T14:29:38.170Z,4.73
2017-12-10T14:32:05.795Z,4.33
2017-12-10T14:34:33.383Z,4.50
2017-12-10T14:37:00.995Z,4.50
2017-12-10T14:39:28.627Z,3.93
2017-12-10T14:41:56.291Z,4.00
2017-12-10T14:44:24.660Z,4.07
2017-12-10T14:46:53.010Z,4.30
2017-12-10T14:49:21.389Z,4.10
2017-12-10T14:51:48.986Z,3.80
2017-12-10T14:54:17.370Z,4.67
2017-12-10T14:56:45.710Z,4.70
2017-12-10T14:59:13.338Z,4.10
2017-12-10T15:01:40.911Z,4.50
2017-12-10T15:04:08.530Z,4.20
2017-12-10T15:06:36.108Z,4.30
2017-12-10T15:09:03.743Z,4.77
2017-12-10T15:11:32.119Z,4.13
2017-12-10T15:14:00.465Z,3.97
2017-12-10T15:16:28.082Z,4.40
2017-12-10T15:18:55.667Z,3.77
2017-12-10T15:21:24.025Z,3.83
2017-12-10T15:23:51.628Z,3.87
2017-12-10T15:26:19.222Z,4.33
2017-12-10T15:28:46.829Z,3.97
2017-12-10T15:31:14.437Z,4.70
2017-12-10T15:33:42.803Z,6.80
2017-12-10T15:36:10.389Z,5.30
2017-12-10T15:38:37.973Z,5.13
2017-12-10T15:41:05.578Z,5.37
2017-12-10T15:43:33.151Z,5.10
2017-12-10T15:46:01.533Z,5.37
2017-12-10T15:48:29.119Z,6.13
2017-12-10T15:50:56.690Z,5.13
2017-12-10T15:53:24.302Z,4.97
2017-12-10T15:55:52.656Z,5.00
2017-12-10T15:58:20.254Z,6.87
2017-12-10T16:00:48.588Z,46.07
2017-12-10T16:03:16.976Z,55.40
2017-12-10T16:05:44.596Z,10.73
2017-12-10T16:08:12.509Z,10.93
2017-12-10T16:10:40.102Z,10.43
2017-12-10T16:13:08.486Z,17.60
2017-12-10T16:15:36.339Z,6.57
2017-12-10T16:18:04.714Z,6.90
2017-12-10T16:20:33.064Z,4.63
2017-12-10T16:23:00.649Z,4.20
2017-12-10T16:25:29.006Z,2.60
2017-12-10T16:27:56.609Z,3.63
2017-12-10T16:30:24.174Z,2.90
2017-12-10T16:32:51.858Z,2.80
2017-12-10T16:35:19.470Z,3.27
2017-12-10T16:37:47.818Z,3.20
2017-12-10T16:40:15.417Z,3.33
2017-12-10T16:42:43.785Z,4.13
2017-12-10T16:45:12.379Z,2.90
2017-12-10T16:47:40.725Z,3.63
2017-12-10T16:50:08.329Z,5.83
2017-12-10T16:52:35.911Z,3.70
2017-12-10T16:55:03.507Z,3.33
2017-12-10T16:57:31.093Z,2.90
2017-12-10T16:59:59.477Z,4.90
2017-12-10T17:02:27.817Z,5.10
2017-12-10T17:04:55.413Z,4.70
2017-12-10T17:07:23.898Z,5.33
2017-12-10T17:09:51.521Z,3.17
2017-12-10T17:12:19.911Z,3.40
2017-12-10T17:14:47.476Z,3.37
2017-12-10T17:17:15.084Z,3.00
2017-12-10T17:19:42.666Z,2.70
2017-12-10T17:22:10.367Z,2.70
2017-12-10T17:24:38.722Z,3.27
2017-12-10T17:27:06.339Z,3.30
2017-12-10T17:29:34.691Z,3.27
2017-12-10T17:32:03.057Z,4.00
2017-12-10T17:34:30.792Z,3.50
2017-12-10T17:36:58.404Z,3.80
2017-12-10T17:39:26.013Z,4.30
2017-12-10T17:41:53.642Z,4.40
2017-12-10T17:44:21.274Z,3.97
2017-12-10T17:46:49.655Z,4.63
2017-12-10T17:49:18.062Z,4.80
2017-12-10T17:51:45.665Z,3.73
2017-12-10T17:54:13.262Z,3.70
2017-12-10T17:56:41.617Z,3.77
2017-12-10T17:59:09.210Z,3.80
2017-12-10T18:01:36.821Z,4.20
2017-12-10T18:04:04.396Z,4.17
2017-12-10T18:06:32.067Z,3.63
2017-12-10T18:09:00.468Z,4.50
2017-12-10T18:11:28.071Z,3.33
2017-12-10T18:13:55.678Z,3.40
2017-12-10T18:16:24.021Z,4.23
2017-12-10T18:18:52.434Z,3.73
2017-12-10T18:21:20.779Z,3.77
2017-12-10T18:23:48.376Z,3.63
2017-12-10T18:26:16.739Z,3.20
2017-12-10T18:28:47.065Z,2.93
2017-12-10T18:31:15.476Z,3.27
2017-12-10T18:33:43.075Z,3.20
2017-12-10T18:36:10.678Z,3.43
2017-12-10T18:38:39.060Z,3.40
2017-12-10T18:41:06.641Z,3.47
2017-12-10T18:43:34.238Z,2.90
2017-12-10T18:46:01.837Z,3.00
2017-12-10T18:48:29.461Z,3.00
2017-12-10T18:50:57.078Z,2.20
2017-12-10T18:53:24.908Z,2.23
2017-12-10T18:55:53.258Z,2.77
2017-12-10T18:58:20.845Z,2.00
2017-12-10T19:00:49.221Z,1.83
2017-12-10T19:03:17.576Z,1.90
2017-12-10T19:05:45.188Z,1.60
2017-12-10T19:08:12.818Z,2.00
2017-12-10T19:10:41.198Z,1.90
2017-12-10T19:13:08.780Z,1.93
2017-12-10T19:15:36.417Z,2.93
2017-12-10T19:18:03.996Z,2.70
2017-12-10T19:20:32.431Z,2.83
2017-12-10T19:23:00.057Z,1.97
2017-12-10T19:25:27.672Z,2.27
2017-12-10T19:27:55.277Z,2.30
2017-12-10T19:30:22.866Z,2.07
2017-12-10T19:32:50.466Z,2.00
2017-12-10T19:35:18.806Z,1.77
2017-12-10T19:37:46.436Z,2.87
2017-12-10T19:40:14.033Z,2.30
2017-12-10T19:42:41.697Z,2.77
2017-12-10T19:45:09.319Z,3.00
2017-12-10T19:47:36.980Z,3.17
2017-12-10T19:50:04.625Z,2.43
2017-12-10T19:52:32.222Z,2.77
2017-12-10T19:54:59.855Z,2.30
2017-12-10T19:57:27.481Z,3.10
2017-12-10T19:59:55.095Z,2.80
2017-12-10T20:02:22.693Z,2.30
2017-12-10T20:04:50.352Z,3.43
2017-12-10T20:07:17.971Z,2.07
2017-12-10T20:09:45.619Z,2.03
2017-12-10T20:12:13.275Z,2.33
2017-12-10T20:14:40.877Z,2.37
2017-12-10T20:17:08.503Z,2.37
2017-12-10T20:19:36.089Z,1.87
2017-12-10T20:22:03.672Z,1.87
2017-12-10T20:24:31.315Z,1.70
2017-12-10T20:26:58.898Z,1.97
2017-12-10T20:29:26.508Z,3.37
2017-12-10T20:31:54.126Z,2.20
2017-12-10T20:34:21.706Z,1.50
2017-12-10T20:36:49.335Z,1.30
2017-12-10T20:39:16.960Z,2.07
2017-12-10T20:41:44.569Z,1.70
2017-12-10T20:44:12.184Z,1.80
2017-12-10T20:46:39.818Z,1.73
2017-12-10T20:49:07.395Z,1.60
2017-12-10T20:51:34.978Z,1.80
2017-12-10T20:54:02.596Z,2.00
2017-12-10T20:56:30.941Z,1.90
2017-12-10T20:58:58.525Z,2.07
2017-12-10T21:01:26.895Z,1.90
2017-12-10T21:03:54.482Z,1.50
2017-12-10T21:06:22.076Z,1.70
2017-12-10T21:08:50.462Z,1.67
2017-12-10T21:11:18.078Z,1.30
2017-12-10T21:13:45.706Z,1.53
2017-12-10T21:16:13.297Z,1.30
2017-12-10T21:18:40.996Z,1.20
2017-12-10T21:21:08.598Z,1.37
2017-12-10T21:23:36.966Z,1.50
2017-12-10T21:26:04.527Z,1.20
2017-12-10T21:28:32.150Z,1.37
2017-12-10T21:30:59.738Z,1.27
2017-12-10T21:33:27.602Z,1.13
2017-12-10T21:35:55.190Z,1.20
2017-12-10T21:38:23.545Z,1.20
2017-12-10T21:40:51.137Z,1.17
2017-12-10T21:43:20.338Z,1.30
2017-12-10T21:45:48.751Z,1.40
2017-12-10T21:48:16.309Z,1.63
2017-12-10T21:50:43.942Z,1.50
2017-12-10T21:53:11.535Z,1.30
2017-12-10T21:55:39.163Z,1.43
2017-12-10T21:58:06.728Z,1.30
2017-12-10T22:00:34.375Z,1.67
2017-12-10T22:03:02.719Z,1.30
2017-12-10T22:05:31.825Z,1.60
2017-12-10T22:07:59.428Z,1.47
2017-12-10T22:10:27.049Z,1.50
2017-12-10T22:12:54.682Z,2.00
2017-12-10T22:15:22.263Z,2.20
2017-12-10T22:17:49.875Z,2.03
2017-12-10T22:20:17.458Z,1.80
2017-12-10T22:22:45.050Z,2.00
2017-12-10T22:25:12.629Z,1.90
2017-12-10T22:27:40.982Z,1.80
2017-12-10T22:30:08.582Z,1.63
2017-12-10T22:32:36.204Z,1.70
2017-12-10T22:35:03.850Z,1.40
2017-12-10T22:37:31.462Z,1.40
2017-12-10T22:39:59.053Z,1.30
2017-12-10T22:42:26.636Z,1.20
2017-12-10T22:44:54.243Z,1.37
2017-12-10T22:47:21.857Z,1.20
2017-12-10T22:49:49.476Z,1.30
2017-12-10T22:52:17.094Z,1.10
2017-12-10T22:54:44.705Z,1.40
2017-12-10T22:57:12.413Z,1.20
2017-12-10T22:59:40.023Z,1.20
2017-12-10T23:02:07.671Z,1.50
2017-12-10T23:04:35.997Z,1.40
2017-12-10T23:07:04.360Z,1.40
2017-12-10T23:09:31.986Z,1.17
2017-12-10T23:11:59.586Z,1.10
2017-12-10T23:14:43.986Z,1.30
2017-12-10T23:17:12.348Z,1.07
2017-12-10T23:19:39.947Z,1.30
2017-12-10T23:22:07.550Z,1.60
2017-12-10T23:24:35.889Z,1.30
2017-12-10T23:27:03.473Z,1.30
2017-12-10T23:29:31.172Z,1.10
2017-12-10T23:31:58.749Z,1.20
2017-12-10T23:34:26.357Z,1.00
2017-12-10T23:36:53.978Z,1.27
2017-12-10T23:39:21.574Z,1.20
2017-12-10T23:41:49.203Z,1.20
2017-12-10T23:44:16.813Z,1.10
2017-12-10T23:46:44.389Z,1.20
2017-12-10T23:49:12.007Z,1.07
2017-12-10T23:51:39.603Z,1.07
2017-12-10T23:54:08.705Z,0.97
2017-12-10T23:56:37.171Z,1.10
2017-12-10T23:59:04.775Z,0.90
